Ackley, IA

2:25 PM CST on January 25, 2015 (GMT -0600)
Jensen Farm | Change Station
CLOSE
Current Station
Personal Weather Station
Location: Iowa Falls, IA
Elevation: 1129 ft
Nearby Weather Stations

Elev 1129 ft 42.50 °N, 93.20 °W | Updated 8 seconds ago

Partly Cloudy
Partly Cloudy
32.1 °F
Feels Like 26 °F
N
6.0
Wind Variable Wind from NNE
Gusts 15.0 mph

Today
High -- | Low -- °F
--% Chance of Precip.
Yesterday
High -- | Low -- °F
Precip. -- in
7:32 AM 5:16 PM
Waxing Crescent, 35% visible
Pressure 29.95 in
Visibility 10.0 miles
Clouds Scattered Clouds 1300 ft
Windchill 26 °F
Dew Point 29 °F
Humidity 91%
Rainfall 0.09 in
Snow Depth Not available.
UV 2 out of 12
Pollen .10 out of 12
Air Quality Not available.
Flu Activity Not available.
METAR KIFA 252015Z AUTO 01008KT 10SM SCT013 00/M03 A2995 RMK AO2 T00011027

More Conditions Fewer Conditions

Pressure 29.95 in
Visibility 10.0 miles
Clouds Scattered Clouds 1300 ft
Windchill 26 °F
Dew Point 29 °F
Humidity 91%
Rainfall 0.09 in
Snow Depth Not available.
UV 2 out of 12
Pollen .10 out of 12
Air Quality Not available.
Flu Activity Not available.
METAR KIFA 252015Z AUTO 01008KT 10SM SCT013 00/M03 A2995 RMK AO2 T00011027

More Conditions Fewer Conditions

10-Day Weather Forecast

Almanac

Astronomy

Jan. 25, 2015 Rise Set
Actual Time
Civil Twilight
Nautical Twilight
Astronomical Twilight
Moon
Length of Visible Light
Length of Day
Tomorrow will be .
, % of the Moon is Illuminated

Today's Extremes

State Highs State Lows

Community

WunderPhotos

Upload Photos

1,790,038 photos uploaded!

WunderBlogs® & News

Nearby

Air Quality

  Air Quality AQ Index Pollutant
Not available.

Snow Depth

Station Depth Elevation

Earthquake Activity

City Distance Mag. Time & Date
Minimum magnitude displayed is 2.5.

Coastal Water Temperatures

Place Temperature

Nearby Weather Stations